Time;durP1;ratioP1;P1;durP2;ratioP2;P2;SDS_P1;SDS_P2;PMS_P1;PMS_P2;Temp;Humidity;BMP_temperature;BMP_pressure;BME280_temperature;BME280_humidity;BME280_pressure;Samples;Min_cycle;Max_cycle;Signal;HPM_P1;HPM_P2
2021/03/19 00:02:04;;;;;;;;;;;;;;;15.04;66.59;100763.47;5076599;28;1464;-58
2021/03/19 00:04:29;;;;;;;;;;;;;;;15.05;67.28;100765.19;5076551;28;1951;-59
2021/03/19 00:06:55;;;;;;;;;;;;;;;15.00;66.75;100767.31;5078037;28;785;-65
2021/03/19 00:09:20;;;;;;;;;;;;;;;15.00;67.18;100760.22;5076702;28;1539;-65
2021/03/19 00:11:45;;;;;;;;;;;;;;;15.01;66.41;100753.91;5076317;28;1481;-59
2021/03/19 00:14:10;;;;;;;;;;;;;;;15.02;66.13;100766.28;5066416;28;1411;-59
2021/03/19 00:16:36;;;;;;;;;;;;;;;15.06;66.01;100762.44;5076631;28;1602;-65
2021/03/19 00:19:02;;;;;;;;;;;;;;;15.05;66.87;100766.03;5076534;28;1367;-65
2021/03/19 00:21:27;;;;;;;;;;;;;;;15.06;66.91;100756.22;5076310;28;1428;-59
2021/03/19 00:23:52;;;;;;;;;;;;;;;15.05;66.46;100746.56;5066554;28;1913;-59
2021/03/19 00:26:18;;;;;;;;;;;;;;;15.04;66.36;100750.16;5077475;28;924;-59
2021/03/19 00:28:43;;;;;;;;;;;;;;;15.04;66.68;100759.03;5076602;28;1831;-65
2021/03/19 00:31:08;;;;;;;;;;;;;;;15.03;66.68;100751.13;5076435;28;1722;-59
2021/03/19 00:33:34;;;;;;;;;;;;;;;15.05;67.22;100754.53;5076419;28;1848;-65
2021/03/19 00:35:59;;;;;;;;;;;;;;;15.01;66.93;100747.72;5076242;28;1496;-59
2021/03/19 00:38:24;;;;;;;;;;;;;;;15.00;66.86;100744.22;5077211;28;825;-65
2021/03/19 00:40:50;;;;;;;;;;;;;;;15.01;66.61;100737.94;5076512;28;1658;-59
2021/03/19 00:43:16;;;;;;;;;;;;;;;14.99;67.01;100734.53;5076321;28;1821;-59
2021/03/19 00:45:42;;;;;;;;;;;;;;;15.00;66.95;100744.22;5076026;28;1886;-59
2021/03/19 00:48:07;;;;;;;;;;;;;;;14.99;66.58;100733.69;5077109;28;828;-63
2021/03/19 00:50:37;;;;;;;;;;;;;;;14.98;66.47;100732.84;5075814;28;1530;-59
2021/03/19 00:53:03;;;;;;;;;;;;;;;14.96;66.68;100734.75;5075334;28;1590;-59
2021/03/19 00:55:28;;;;;;;;;;;;;;;14.96;66.32;100733.88;5075629;28;1412;-64
2021/03/19 00:57:54;;;;;;;;;;;;;;;14.94;66.45;100723.38;5076312;28;1424;-65
2021/03/19 01:00:20;;;;;;;;;;;;;;;14.91;66.20;100721.75;5075350;28;1472;-66
2021/03/19 01:02:45;;;;;;;;;;;;;;;14.95;66.30;100738.38;5075418;28;1517;-65
2021/03/19 01:05:15;;;;;;;;;;;;;;;14.96;67.34;100734.75;5075920;28;1952;-59
2021/03/19 01:07:41;;;;;;;;;;;;;;;14.92;67.21;100738.56;5073953;28;1622;-65
2021/03/19 01:10:11;;;;;;;;;;;;;;;14.91;66.51;100720.91;5076489;28;1620;-65
2021/03/19 01:12:37;;;;;;;;;;;;;;;14.89;66.79;100726.34;5075421;28;1655;-59
2021/03/19 01:15:03;;;;;;;;;;;;;;;14.94;66.78;100730.47;5075671;28;1595;-65
2021/03/19 01:17:28;;;;;;;;;;;;;;;14.90;66.53;100743.16;5075450;28;1543;-65
2021/03/19 01:19:54;;;;;;;;;;;;;;;14.90;66.37;100744.03;5075531;28;1606;-59
2021/03/19 01:22:19;;;;;;;;;;;;;;;14.90;66.64;100743.16;5075479;28;1356;-65
2021/03/19 01:24:44;;;;;;;;;;;;;;;14.93;66.91;100742.94;5075506;28;1992;-59
2021/03/19 01:27:10;;;;;;;;;;;;;;;14.87;66.98;100736.25;5075649;28;1579;-65
2021/03/19 01:29:35;;;;;;;;;;;;;;;14.88;66.85;100732.63;5075313;28;1547;-65
2021/03/19 01:32:00;;;;;;;;;;;;;;;14.90;66.56;100730.72;5076542;28;822;-59
2021/03/19 01:34:25;;;;;;;;;;;;;;;14.94;66.74;100731.34;5075302;28;1777;-58
2021/03/19 01:36:51;;;;;;;;;;;;;;;14.92;66.85;100733.25;5075465;28;1372;-59
2021/03/19 01:39:16;;;;;;;;;;;;;;;14.97;66.57;100725.78;5074801;28;1399;-65
2021/03/19 01:41:45;;;;;;;;;;;;;;;14.94;65.96;100731.34;5074875;28;1368;-59
2021/03/19 01:44:10;;;;;;;;;;;;;;;14.94;66.57;100718.03;5075046;28;1906;-65
2021/03/19 01:46:54;;;;;;;;;;;;;;;14.92;66.26;100727.91;5076194;28;808;-65
2021/03/19 01:49:38;;;;;;;;;;;;;;;14.89;66.61;100725.50;5075063;28;1778;-59
2021/03/19 01:52:22;;;;;;;;;;;;;;;14.91;66.77;100726.25;5076138;28;785;-59
2021/03/19 01:55:06;;;;;;;;;;;;;;;14.90;66.59;100722.72;5074795;28;1721;-65
2021/03/19 01:57:49;;;;;;;;;;;;;;;14.89;66.45;100722.84;5074808;28;1527;-59
2021/03/19 02:00:33;;;;;;;;;;;;;;;14.90;66.76;100725.41;5074258;28;1718;-59
2021/03/19 02:03:17;;;;;;;;;;;;;;;14.91;66.31;100728.91;5074973;28;1427;-65
2021/03/19 02:06:01;;;;;;;;;;;;;;;14.89;65.90;100718.34;5074475;28;1955;-65
2021/03/19 02:08:44;;;;;;;;;;;;;;;14.88;66.09;100716.66;5074468;28;1467;-59
2021/03/19 02:11:28;;;;;;;;;;;;;;;14.93;66.43;100734.13;5065636;28;1475;-59
2021/03/19 02:14:12;;;;;;;;;;;;;;;14.91;66.63;100736.88;5066381;28;1562;-59
2021/03/19 02:16:56;;;;;;;;;;;;;;;14.89;66.83;100744.13;5066393;28;1547;-59
2021/03/19 02:19:40;;;;;;;;;;;;;;;14.88;66.59;100742.41;5067306;28;1468;-65
2021/03/19 02:22:24;;;;;;;;;;;;;;;14.84;66.73;100738.28;5064148;28;1618;-59
2021/03/19 02:25:07;;;;;;;;;;;;;;;14.85;66.88;100747.97;5073868;28;1922;-65
2021/03/19 02:27:51;;;;;;;;;;;;;;;14.83;66.48;100747.22;5073834;28;1344;-64
2021/03/19 02:30:35;;;;;;;;;;;;;;;14.84;66.65;100746.25;5074367;28;1567;-65
2021/03/19 02:33:00;;;;;;;;;;;;;;;14.84;66.39;100756.91;5075468;28;903;-59
2021/03/19 02:35:25;;;;;;;;;;;;;;;14.84;66.55;100756.91;5073805;28;1746;-65
2021/03/19 02:37:51;;;;;;;;;;;;;;;14.79;66.50;100745.75;5074311;28;1741;-65
2021/03/19 02:40:18;;;;;;;;;;;;;;;14.80;66.21;100760.75;5073903;28;1443;-65
2021/03/19 02:42:44;;;;;;;;;;;;;;;14.77;66.87;100745.00;5073489;28;1345;-65
2021/03/19 02:45:11;;;;;;;;;;;;;;;14.79;66.21;100743.94;5073717;28;1881;-65
2021/03/19 02:47:37;;;;;;;;;;;;;;;14.79;66.65;100749.25;5074893;28;952;-59
2021/03/19 02:50:03;;;;;;;;;;;;;;;14.82;66.39;100748.19;5073967;28;1535;-65
2021/03/19 02:52:31;;;;;;;;;;;;;;;14.80;66.50;100745.66;5073954;28;1147;-59
2021/03/19 02:54:56;;;;;;;;;;;;;;;14.84;66.33;100746.25;5073921;28;1782;-65
2021/03/19 02:57:22;;;;;;;;;;;;;;;14.85;66.59;100747.97;5072817;28;1666;-58
2021/03/19 02:59:47;;;;;;;;;;;;;;;14.83;66.43;100748.06;5073656;28;1543;-59
2021/03/19 03:02:12;;;;;;;;;;;;;;;14.85;66.50;100740.84;5087210;22;1976;-44
2021/03/19 03:04:37;;;;;;;;;;;;;;;14.88;66.27;100745.94;5073632;28;1974;-46
2021/03/19 03:07:03;;;;;;;;;;;;;;;14.83;65.82;100750.75;5072328;28;1883;-46
2021/03/19 03:09:30;;;;;;;;;;;;;;;14.82;66.10;100750.84;5072662;28;1593;-46
2021/03/19 03:11:56;;;;;;;;;;;;;;;14.86;66.60;100749.66;5078454;22;3495;-58
2021/03/19 03:14:23;;;;;;;;;;;;;;;14.83;66.78;100756.06;5061494;28;1184;-65
2021/03/19 03:16:49;;;;;;;;;;;;;;;14.81;65.66;100751.81;5061584;28;1276;-65
2021/03/19 03:19:17;;;;;;;;;;;;;;;14.78;66.27;100742.25;5061906;28;1450;-65
2021/03/19 03:21:43;;;;;;;;;;;;;;;14.80;65.95;100743.00;5059237;28;1844;-64
2021/03/19 03:24:09;;;;;;;;;;;;;;;14.80;66.08;100744.78;5062824;28;1913;-58
2021/03/19 03:26:35;;;;;;;;;;;;;;;14.79;66.09;100740.44;5061823;28;1181;-58
2021/03/19 03:29:00;;;;;;;;;;;;;;;14.83;66.16;100758.72;5062976;28;859;-64
2021/03/19 03:31:25;;;;;;;;;;;;;;;14.80;66.52;100750.09;5056025;28;1722;-58
2021/03/19 03:33:51;;;;;;;;;;;;;;;14.74;65.91;100747.88;5062328;28;1392;-65
2021/03/19 03:36:17;;;;;;;;;;;;;;;14.80;66.50;100753.63;5062780;28;1261;-65
2021/03/19 03:38:42;;;;;;;;;;;;;;;14.73;66.59;100748.84;5062534;28;1585;-64
2021/03/19 03:41:09;;;;;;;;;;;;;;;14.76;65.87;100749.47;5079383;28;835;-65
2021/03/19 03:43:35;;;;;;;;;;;;;;;14.75;66.42;100758.41;5079622;28;1885;-58
2021/03/19 03:46:01;;;;;;;;;;;;;;;14.73;66.17;100759.50;5057921;28;1232;-61
2021/03/19 03:48:30;;;;;;;;;;;;;;;14.74;66.58;100755.84;5070653;28;1756;-58
2021/03/19 03:50:56;;;;;;;;;;;;;;;14.74;66.71;100762.03;5060386;28;1265;-65
2021/03/19 03:53:22;;;;;;;;;;;;;;;14.74;66.34;100762.03;5055200;28;1339;-65
2021/03/19 03:55:48;;;;;;;;;;;;;;;14.71;66.45;100756.94;5060371;28;1531;-65
2021/03/19 03:58:13;;;;;;;;;;;;;;;14.72;66.09;100763.94;5062121;28;1357;-65
2021/03/19 04:00:39;;;;;;;;;;;;;;;14.70;65.80;100756.09;5061476;28;1574;-65
2021/03/19 04:03:06;;;;;;;;;;;;;;;14.68;65.90;100760.66;5063775;28;1482;-65
2021/03/19 04:05:33;;;;;;;;;;;;;;;14.68;66.36;100754.47;5062470;28;1922;-65
2021/03/19 04:07:58;;;;;;;;;;;;;;;14.69;66.36;100756.19;5052845;28;1679;-59
2021/03/19 04:10:24;;;;;;;;;;;;;;;14.67;66.41;100748.31;5062487;28;1523;-65
2021/03/19 04:12:49;;;;;;;;;;;;;;;14.68;66.19;100749.16;5059389;28;1467;-59
2021/03/19 04:15:15;;;;;;;;;;;;;;;14.73;66.08;100754.16;5065114;28;1535;-65
2021/03/19 04:17:42;;;;;;;;;;;;;;;14.73;66.52;100755.00;5062414;28;1710;-64
2021/03/19 04:20:08;;;;;;;;;;;;;;;14.74;66.29;100755.84;5065369;28;1682;-64
2021/03/19 04:22:33;;;;;;;;;;;;;;;14.74;65.95;100745.22;5057569;28;1216;-65
2021/03/19 04:24:59;;;;;;;;;;;;;;;14.75;66.19;100749.59;5061071;28;1913;-65
2021/03/19 04:27:27;;;;;;;;;;;;;;;14.77;66.20;100756.50;5061696;28;1296;-64
2021/03/19 04:29:54;;;;;;;;;;;;;;;14.71;66.23;100747.13;5066019;28;1283;-62
2021/03/19 04:32:20;;;;;;;;;;;;;;;14.76;65.99;100764.59;5064831;28;854;-58
2021/03/19 04:34:45;;;;;;;;;;;;;;;14.73;65.81;100759.50;5062393;28;1397;-66
2021/03/19 04:37:12;;;;;;;;;;;;;;;14.70;66.02;100753.44;5064155;28;1254;-58
2021/03/19 04:39:39;;;;;;;;;;;;;;;14.68;66.49;100762.47;5065008;28;1312;-65
2021/03/19 04:42:05;;;;;;;;;;;;;;;14.67;65.73;100761.63;5065544;28;1359;-65
2021/03/19 04:44:34;;;;;;;;;;;;;;;14.68;66.29;100768.66;5066201;28;1980;-58
2021/03/19 04:46:59;;;;;;;;;;;;;;;14.69;66.10;100764.19;5063138;28;1180;-58
2021/03/19 04:49:24;;;;;;;;;;;;;;;14.73;66.25;100756.84;5059370;28;1651;-58
2021/03/19 04:51:50;;;;;;;;;;;;;;;14.71;66.07;100756.94;5062841;28;805;-58
2021/03/19 04:54:15;;;;;;;;;;;;;;;14.71;65.53;100757.78;5062980;28;1580;-58
2021/03/19 04:56:41;;;;;;;;;;;;;;;14.72;65.85;100755.97;5064375;28;1539;-58
2021/03/19 04:59:07;;;;;;;;;;;;;;;14.70;66.34;100761.41;5063372;28;1352;-58
2021/03/19 05:01:32;;;;;;;;;;;;;;;14.70;66.01;100756.09;5063389;28;1495;-58
2021/03/19 05:03:58;;;;;;;;;;;;;;;14.66;66.04;100753.72;5064416;28;1972;-65
2021/03/19 05:06:23;;;;;;;;;;;;;;;14.69;65.58;100765.03;5065301;28;1258;-65
2021/03/19 05:08:49;;;;;;;;;;;;;;;14.67;66.09;100753.63;5068749;28;1802;-64
2021/03/19 05:11:15;;;;;;;;;;;;;;;14.66;66.13;100754.59;5065458;28;1299;-58
2021/03/19 05:13:41;;;;;;;;;;;;;;;14.64;65.89;100769.84;5064126;28;1337;-58
2021/03/19 05:16:07;;;;;;;;;;;;;;;14.66;65.65;100762.59;5061780;28;1650;-65
2021/03/19 05:18:32;;;;;;;;;;;;;;;14.68;65.42;100775.75;5062830;28;1547;-58
2021/03/19 05:20:59;;;;;;;;;;;;;;;14.67;65.97;100772.25;5065965;28;793;-58
2021/03/19 05:23:26;;;;;;;;;;;;;;;14.64;65.50;100777.81;5066228;28;1214;-58
2021/03/19 05:25:51;;;;;;;;;;;;;;;14.63;66.25;100775.25;5059634;28;1914;-58
2021/03/19 05:28:17;;;;;;;;;;;;;;;14.65;66.02;100779.50;5068089;28;1769;-58
2021/03/19 05:30:43;;;;;;;;;;;;;;;14.64;66.51;100780.47;5062219;28;1285;-58
2021/03/19 05:33:08;;;;;;;;;;;;;;;14.65;66.10;100782.16;5071318;28;729;-65
2021/03/19 05:35:34;;;;;;;;;;;;;;;14.67;65.92;100782.91;5065665;28;1726;-58
2021/03/19 05:37:59;;;;;;;;;;;;;;;14.70;65.77;100782.72;5065666;28;1682;-65
2021/03/19 05:40:39;;;;;;;;;;;;;;;14.75;65.58;100781.53;5062345;28;1698;-59
2021/03/19 05:43:15;;;;;;;;;;;;;;;14.74;65.76;100783.31;5063759;28;1678;-65
2021/03/19 05:45:41;;;;;;;;;;;;;;;14.75;65.72;100784.19;5063397;28;1890;-59
2021/03/19 05:48:07;;;;;;;;;;;;;;;14.71;65.58;100779.06;5057000;28;821;-65
2021/03/19 05:50:34;;;;;;;;;;;;;;;14.76;65.70;100781.41;5064592;28;1364;-58
2021/03/19 05:53:10;;;;;;;;;;;;;;;14.75;65.20;100773.53;5054340;28;1690;-58
2021/03/19 05:55:37;;;;;;;;;;;;;;;14.69;65.93;100767.69;5063920;28;1233;-58
2021/03/19 05:58:05;;;;;;;;;;;;;;;14.76;65.51;100783.22;5063222;28;1236;-58
2021/03/19 06:00:30;;;;;;;;;;;;;;;14.70;65.75;100772.06;5064895;28;830;-58
2021/03/19 06:02:55;;;;;;;;;;;;;;;14.69;66.22;100775.66;5064974;28;1471;-59
2021/03/19 06:05:29;;;;;;;;;;;;;;;14.75;66.12;100786.84;5058378;28;1956;-58
2021/03/19 06:07:59;;;;;;;;;;;;;;;14.69;65.58;100786.31;5053955;28;1707;-58
2021/03/19 06:10:26;;;;;;;;;;;;;;;14.71;65.92;100787.06;5061567;28;1287;-58
2021/03/19 06:12:57;;;;;;;;;;;;;;;14.74;66.03;100788.66;5065044;28;801;-58
2021/03/19 06:15:27;;;;;;;;;;;;;;;14.76;65.43;100785.88;5064690;28;1618;-58
2021/03/19 06:17:53;;;;;;;;;;;;;;;14.75;65.75;100786.84;5063535;28;1659;-59
2021/03/19 06:20:19;;;;;;;;;;;;;;;14.76;65.27;100788.53;5057771;28;1745;-58
2021/03/19 06:22:57;;;;;;;;;;;;;;;14.77;65.86;100798.25;5062277;28;1520;-65
2021/03/19 06:25:37;;;;;;;;;;;;;;;14.79;65.76;100797.16;5064668;28;1918;-58
2021/03/19 06:28:26;;;;;;;;;;;;;;;14.79;65.90;100791.84;5061875;28;1349;-59
2021/03/19 06:30:52;;;;;;;;;;;;;;;14.81;65.16;100802.41;5058816;28;1467;-58
2021/03/19 06:33:17;;;;;;;;;;;;;;;14.84;65.32;100794.19;5055385;28;1492;-65
2021/03/19 06:35:44;;;;;;;;;;;;;;;14.85;65.42;100804.72;5061599;28;800;-59
2021/03/19 06:38:35;;;;;;;;;;;;;;;14.87;65.76;100799.31;5065210;28;1766;-58
2021/03/19 06:41:19;;;;;;;;;;;;;;;14.88;65.46;100803.66;5065582;28;1181;-58
2021/03/19 06:43:45;;;;;;;;;;;;;;;14.89;65.59;100797.38;5068077;28;1949;-58
2021/03/19 06:46:14;;;;;;;;;;;;;;;14.91;65.67;100817.59;5064414;28;1770;-65
2021/03/19 06:48:42;;;;;;;;;;;;;;;14.87;65.13;100799.31;5055086;28;1379;-64
2021/03/19 06:51:23;;;;;;;;;;;;;;;14.91;65.73;100806.13;5061611;28;823;-58
2021/03/19 06:54:02;;;;;;;;;;;;;;;14.89;65.66;100800.03;5056825;28;1674;-65
2021/03/19 06:56:27;;;;;;;;;;;;;;;14.88;64.96;100801.88;5060486;28;1236;-64
2021/03/19 06:58:53;;;;;;;;;;;;;;;14.87;65.50;100800.16;5062935;28;1587;-65
2021/03/19 07:01:28;;;;;;;;;;;;;;;14.89;65.09;100792.06;5060706;28;1369;-58
2021/03/19 07:03:56;;;;;;;;;;;;;;;14.92;65.56;100797.16;5059498;28;2386;-58
2021/03/19 07:06:24;;;;;;;;;;;;;;;14.93;65.19;100809.53;5062126;28;1548;-65
2021/03/19 07:09:16;;;;;;;;;;;;;;;14.90;65.19;100791.09;5061381;28;1300;-65
2021/03/19 07:11:47;;;;;;;;;;;;;;;14.96;65.03;100808.44;5048816;28;1659;-58
2021/03/19 07:14:35;;;;;;;;;;;;;;;14.98;65.07;100811.84;5061974;28;1294;-58
2021/03/19 07:17:00;;;;;;;;;;;;;;;14.97;64.55;100811.00;5061979;28;1559;-65
2021/03/19 07:19:32;;;;;;;;;;;;;;;14.97;64.34;100811.00;5062191;28;1512;-65
2021/03/19 07:22:05;;;;;;;;;;;;;;;14.98;64.55;100807.41;5062748;28;1353;-59
2021/03/19 07:24:51;;;;;;;;;;;;;;;15.04;64.50;100820.28;5059102;28;1906;-65
2021/03/19 07:27:17;;;;;;;;;;;;;;;15.01;64.72;100804.50;5061025;28;1586;-65
2021/03/19 07:30:06;;;;;;;;;;;;;;;15.02;64.52;100811.53;5061009;28;1626;-58
2021/03/19 07:32:54;;;;;;;;;;;;;;;15.05;65.04;100805.97;5064319;28;962;-58
2021/03/19 07:35:38;;;;;;;;;;;;;;;15.07;64.24;100817.38;5060262;28;1759;-58
2021/03/19 07:38:21;;;;;;;;;;;;;;;15.06;64.22;100809.50;5063763;28;1742;-65
2021/03/19 07:41:01;;;;;;;;;;;;;;;15.07;65.00;100816.53;5063771;28;1817;-65
2021/03/19 07:43:34;;;;;;;;;;;;;;;15.09;64.45;100815.47;5058428;28;1595;-65
2021/03/19 07:46:15;;;;;;;;;;;;;;;15.06;64.64;100810.38;5065974;28;1662;-58
2021/03/19 07:48:40;;;;;;;;;;;;;;;15.13;64.89;100821.44;5055165;28;1714;-65
2021/03/19 07:51:12;;;;;;;;;;;;;;;15.18;63.92;100824.63;5061748;28;761;-58
2021/03/19 07:53:56;;;;;;;;;;;;;;;15.22;64.41;100814.59;5055013;28;1664;-64
2021/03/19 07:56:21;;;;;;;;;;;;;;;15.25;63.30;100811.72;5060409;28;1547;-60
2021/03/19 07:58:59;;;;;;;;;;;;;;;15.24;63.47;100815.31;5063009;28;1192;-58
2021/03/19 08:01:31;;;;;;;;;;;;;;;15.25;63.37;100809.03;5059213;28;1563;-65
2021/03/19 08:04:06;;;;;;;;;;;;;;;15.27;64.70;100813.28;5066209;28;1897;-66
2021/03/19 08:06:36;;;;;;;;;;;;;;;15.25;63.46;100817.03;5064980;28;810;-65
2021/03/19 08:09:16;;;;;;;;;;;;;;;15.28;63.51;100814.16;5061012;28;1750;-65
2021/03/19 08:11:51;;;;;;;;;;;;;;;15.26;63.91;100800.06;5062780;28;1591;-58
2021/03/19 08:14:41;;;;;;;;;;;;;;;15.27;63.71;100812.44;5064375;28;1364;-59
2021/03/19 08:17:21;;;;;;;;;;;;;;;15.26;63.76;100811.59;5066083;28;1551;-59
2021/03/19 08:19:59;;;;;;;;;;;;;;;15.27;64.45;100818.63;5065062;28;1608;-65
2021/03/19 08:22:27;;;;;;;;;;;;;;;15.28;63.68;100811.50;5065821;28;1540;-65
2021/03/19 08:24:56;;;;;;;;;;;;;;;15.27;63.50;100802.63;5064694;28;1917;-64
2021/03/19 08:27:30;;;;;;;;;;;;;;;15.31;63.68;100804.13;5064696;28;1724;-62
2021/03/19 08:30:15;;;;;;;;;;;;;;;15.32;63.68;100807.66;5062285;28;1214;-59
2021/03/19 08:32:44;;;;;;;;;;;;;;;15.32;64.30;100800.50;5068230;28;1130;-58
2021/03/19 08:35:22;;;;;;;;;;;;;;;15.31;63.70;100790.78;5063315;28;1368;-65
2021/03/19 08:38:10;;;;;;;;;;;;;;;15.34;63.94;100803.06;5065094;28;1516;-59
2021/03/19 08:40:45;;;;;;;;;;;;;;;15.36;64.36;100793.16;5066883;28;1341;-59
2021/03/19 08:43:37;;;;;;;;;;;;;;;15.39;63.94;100802.72;5065173;28;1496;-65
2021/03/19 08:46:06;;;;;;;;;;;;;;;15.39;64.08;100803.56;5058067;28;1414;-65
2021/03/19 08:48:32;;;;;;;;;;;;;;;15.34;64.63;100799.53;5073605;28;1821;-58
2021/03/19 08:51:12;;;;;;;;;;;;;;;15.32;64.26;100797.84;5064554;28;1169;-58
2021/03/19 08:53:57;;;;;;;;;;;;;;;15.34;64.25;100788.88;5057238;28;1374;-65
2021/03/19 08:56:25;;;;;;;;;;;;;;;15.32;63.78;100794.34;5061583;28;1383;-58
2021/03/19 08:58:51;;;;;;;;;;;;;;;15.33;64.02;100798.69;5065310;28;1583;-58
2021/03/19 09:01:35;;;;;;;;;;;;;;;15.35;64.40;100787.91;5065395;28;1384;-58
2021/03/19 09:04:01;;;;;;;;;;;;;;;15.37;63.61;100792.16;5066337;28;1906;-65
2021/03/19 09:06:28;;;;;;;;;;;;;;;15.36;63.89;100798.47;5068970;28;1678;-58
2021/03/19 09:08:56;;;;;;;;;;;;;;;15.36;63.59;100792.28;5064373;28;1606;-65
2021/03/19 09:11:23;;;;;;;;;;;;;;;15.38;63.56;100799.22;5064076;28;1563;-58
2021/03/19 09:14:01;;;;;;;;;;;;;;;15.41;63.33;100792.81;5065527;28;1285;-58
2021/03/19 09:16:38;;;;;;;;;;;;;;;15.45;63.72;100800.47;5066751;28;1368;-58
2021/03/19 09:19:24;;;;;;;;;;;;;;;15.49;63.96;100801.94;5065869;28;1650;-65
2021/03/19 09:21:49;;;;;;;;;;;;;;;15.49;63.98;100801.94;5062201;28;1231;-65
2021/03/19 09:24:23;;;;;;;;;;;;;;;15.48;64.29;100800.25;5065451;28;1910;-65
2021/03/19 09:26:51;;;;;;;;;;;;;;;15.48;63.44;100802.91;5064402;28;1587;-58
2021/03/19 09:29:19;;;;;;;;;;;;;;;15.43;63.55;100801.53;5064453;28;1427;-58
2021/03/19 09:31:47;;;;;;;;;;;;;;;15.48;63.63;100804.72;5065236;28;1159;-65
2021/03/19 09:34:14;;;;;;;;;;;;;;;15.45;64.36;100789.78;5056676;28;1658;-58
2021/03/19 09:36:58;;;;;;;;;;;;;;;15.41;64.30;100798.97;5061782;28;1392;-58
2021/03/19 09:39:42;;;;;;;;;;;;;;;15.38;63.60;100807.22;5063199;28;1567;-58
2021/03/19 09:42:28;;;;;;;;;;;;;;;15.31;64.19;100803.28;5061839;28;1591;-65
2021/03/19 09:45:15;;;;;;;;;;;;;;;15.32;63.98;100799.66;5061271;28;1960;-58
2021/03/19 09:47:45;;;;;;;;;;;;;;;15.32;64.33;100805.84;5069615;28;832;-58
2021/03/19 09:50:19;;;;;;;;;;;;;;;15.30;64.33;100805.09;5068106;28;1429;-64
2021/03/19 09:52:57;;;;;;;;;;;;;;;15.32;65.00;100815.66;5055621;28;1733;-65
2021/03/19 09:55:24;;;;;;;;;;;;;;;15.30;64.82;100812.25;5063715;28;1480;-64
2021/03/19 09:57:50;;;;;;;;;;;;;;;15.31;63.97;100804.13;5063582;28;750;-65
2021/03/19 10:00:18;;;;;;;;;;;;;;;15.35;63.41;100804.75;5066311;28;1737;-58
2021/03/19 10:02:43;;;;;;;;;;;;;;;15.38;64.25;100796.56;5065839;28;1631;-65
2021/03/19 10:05:19;;;;;;;;;;;;;;;15.43;63.75;100807.72;5053885;28;1902;-65
2021/03/19 10:07:49;;;;;;;;;;;;;;;15.41;63.31;100793.66;5073183;28;1290;-65
2021/03/19 10:10:24;;;;;;;;;;;;;;;15.46;62.92;100798.66;5065838;28;805;-65
2021/03/19 10:12:50;;;;;;;;;;;;;;;15.45;63.31;100800.47;5066566;28;781;-59
2021/03/19 10:15:18;;;;;;;;;;;;;;;15.38;64.18;100809.88;5066043;28;1682;-65
2021/03/19 10:17:53;;;;;;;;;;;;;;;15.41;63.34;100801.66;5059001;28;1311;-65
2021/03/19 10:20:22;;;;;;;;;;;;;;;15.40;62.97;100810.63;5064520;28;1624;-58
2021/03/19 10:22:49;;;;;;;;;;;;;;;15.45;63.23;100821.78;5063300;28;1392;-65
2021/03/19 10:25:18;;;;;;;;;;;;;;;15.43;63.14;100807.72;5062318;28;1918;-58
2021/03/19 10:27:44;;;;;;;;;;;;;;;15.45;63.98;100804.94;5063261;28;1520;-65
2021/03/19 10:30:15;;;;;;;;;;;;;;;15.48;63.18;100813.56;5063528;28;1540;-59
2021/03/19 10:32:40;;;;;;;;;;;;;;;15.47;62.95;100811.00;5061912;28;828;-65
2021/03/19 10:35:17;;;;;;;;;;;;;;;15.47;63.55;100809.19;5062248;28;1717;-59
2021/03/19 10:37:47;;;;;;;;;;;;;;;15.45;63.87;100816.44;5063354;28;1267;-65
2021/03/19 10:40:21;;;;;;;;;;;;;;;15.44;63.45;100806.75;5062208;28;1365;-65
2021/03/19 10:42:52;;;;;;;;;;;;;;;15.42;63.62;100810.47;5060817;28;1273;-58
2021/03/19 10:45:26;;;;;;;;;;;;;;;15.41;63.81;100796.31;5064154;28;1983;-64
2021/03/19 10:47:53;;;;;;;;;;;;;;;15.39;64.04;100800.91;5058602;28;868;-58
2021/03/19 10:50:25;;;;;;;;;;;;;;;15.40;63.41;100785.75;5063654;28;1690;-59
2021/03/19 10:53:01;;;;;;;;;;;;;;;15.37;63.49;100784.19;5054316;28;1679;-58
2021/03/19 10:55:31;;;;;;;;;;;;;;;15.36;63.45;100798.47;5063152;28;1547;-58
2021/03/19 10:58:15;;;;;;;;;;;;;;;15.34;64.32;100791.53;5061581;28;1273;-65
2021/03/19 11:00:42;;;;;;;;;;;;;;;15.30;64.43;100794.44;5062632;28;1199;-65
2021/03/19 11:03:08;;;;;;;;;;;;;;;15.30;63.90;100801.59;5064023;28;1407;-58
2021/03/19 11:05:52;;;;;;;;;;;;;;;15.32;63.97;100794.34;5065709;28;1976;-65
2021/03/19 11:08:18;;;;;;;;;;;;;;;15.32;64.34;100799.66;5056630;28;1621;-58
2021/03/19 11:10:43;;;;;;;;;;;;;;;15.29;64.70;100790.06;5064308;28;1603;-58
2021/03/19 11:13:09;;;;;;;;;;;;;;;15.34;63.63;100796.88;5064534;28;1548;-59
2021/03/19 11:15:34;;;;;;;;;;;;;;;15.35;64.89;100787.91;5065702;28;843;-65
2021/03/19 11:18:11;;;;;;;;;;;;;;;15.28;63.88;100788.38;5065743;28;1675;-58
2021/03/19 11:20:37;;;;;;;;;;;;;;;15.32;64.32;100795.19;5065695;28;1363;-59
2021/03/19 11:23:02;;;;;;;;;;;;;;;15.34;64.03;100791.53;5059077;28;1723;-65
2021/03/19 11:25:33;;;;;;;;;;;;;;;15.31;63.57;100780.13;5067437;28;1902;-65
2021/03/19 11:27:59;;;;;;;;;;;;;;;15.30;64.46;100791.78;5063332;28;1266;-58
2021/03/19 11:30:24;;;;;;;;;;;;;;;15.30;63.67;100786.44;5062992;28;1228;-58
2021/03/19 11:33:01;;;;;;;;;;;;;;;15.32;64.08;100784.53;5060452;28;879;-58
2021/03/19 11:35:26;;;;;;;;;;;;;;;15.31;64.33;100777.47;5065552;28;1723;-65
2021/03/19 11:37:52;;;;;;;;;;;;;;;15.33;63.55;100782.69;5067207;28;1355;-65
2021/03/19 11:40:20;;;;;;;;;;;;;;;15.23;63.79;100768.34;5067762;28;1602;-64
2021/03/19 11:42:48;;;;;;;;;;;;;;;15.29;63.93;100773.22;5067420;28;1548;-58
2021/03/19 11:45:21;;;;;;;;;;;;;;;15.40;64.15;100780.44;5067432;28;1882;-65
2021/03/19 11:47:59;;;;;;;;;;;;;;;15.37;64.39;100760.19;5063608;28;789;-58
2021/03/19 11:50:25;;;;;;;;;;;;;;;15.31;63.56;100760.66;5063639;28;1734;-58
2021/03/19 11:52:52;;;;;;;;;;;;;;;15.29;64.88;100758.09;5076089;28;1343;-65
2021/03/19 11:55:22;;;;;;;;;;;;;;;15.24;64.75;100762.03;5066461;28;1384;-65
2021/03/19 11:57:48;;;;;;;;;;;;;;;15.21;64.10;100756.94;5066799;28;839;-65
2021/03/19 12:00:18;;;;;;;;;;;;;;;15.19;63.98;100756.22;5070075;28;1682;-58
2021/03/19 12:02:44;;;;;;;;;;;;;;;15.20;64.05;100752.56;5068483;28;1698;-58
2021/03/19 12:05:11;;;;;;;;;;;;;;;15.19;64.45;100756.22;5067156;28;1905;-65
2021/03/19 12:07:36;;;;;;;;;;;;;;;15.20;64.12;100765.88;5059752;28;802;-58
2021/03/19 12:10:03;;;;;;;;;;;;;;;15.31;63.87;100760.66;5068136;28;1366;-58
2021/03/19 12:12:28;;;;;;;;;;;;;;;15.32;63.88;100760.53;5066724;28;1701;-65
2021/03/19 12:14:56;;;;;;;;;;;;;;;15.36;63.57;100742.53;5066490;28;1419;-58
2021/03/19 12:17:22;;;;;;;;;;;;;;;15.42;63.56;100751.84;5066846;28;1598;-59
2021/03/19 12:19:48;;;;;;;;;;;;;;;15.39;63.39;100752.94;5066173;28;1255;-58
2021/03/19 12:22:13;;;;;;;;;;;;;;;15.35;64.22;100755.94;5066338;28;1265;-58
2021/03/19 12:24:38;;;;;;;;;;;;;;;15.36;64.16;100752.31;5067105;28;1910;-65
2021/03/19 12:27:04;;;;;;;;;;;;;;;15.39;64.67;100750.28;5068388;28;1544;-65
2021/03/19 12:29:30;;;;;;;;;;;;;;;15.40;63.67;100746.66;5068094;28;1364;-60
2021/03/19 12:31:56;;;;;;;;;;;;;;;15.43;63.74;100742.91;5058767;28;1277;-65
2021/03/19 12:34:22;;;;;;;;;;;;;;;15.43;63.66;100758.91;5067791;28;1583;-58
2021/03/19 12:36:48;;;;;;;;;;;;;;;15.38;63.58;100742.38;5072532;28;1587;-59
2021/03/19 12:39:15;;;;;;;;;;;;;;;15.32;64.58;100725.91;5063734;28;1262;-65
2021/03/19 12:41:40;;;;;;;;;;;;;;;15.28;64.42;100755.56;5063612;28;1420;-58
2021/03/19 12:44:06;;;;;;;;;;;;;;;15.26;64.32;100753.00;5059139;28;1882;-65
2021/03/19 12:46:31;;;;;;;;;;;;;;;15.24;64.08;100759.38;5066476;28;905;-59
2021/03/19 12:48:57;;;;;;;;;;;;;;;15.25;64.18;100766.41;5070988;28;1354;-62
2021/03/19 12:51:22;;;;;;;;;;;;;;;15.30;64.82;100762.47;5066027;28;840;-58
2021/03/19 12:53:48;;;;;;;;;;;;;;;15.28;64.30;100766.22;5060787;28;1715;-64
2021/03/19 12:56:13;;;;;;;;;;;;;;;15.32;63.75;100747.22;5069296;28;1415;-58
2021/03/19 12:58:39;;;;;;;;;;;;;;;15.35;63.97;100756.78;5062882;28;1607;-58
2021/03/19 13:01:04;;;;;;;;;;;;;;;15.31;63.82;100757.97;5074040;28;1381;-65
2021/03/19 13:03:30;;;;;;;;;;;;;;;15.31;64.46;100761.50;5068791;28;1598;-65